sensor_id;sensor_type;location;lat;lon;timestamp;P1;durP1;ratioP1;P2;durP2;ratioP2
68097;SDS011;54886;47.036;15.466;2023-06-14T00:02:05;8.43;;;3.17;;
68097;SDS011;54886;47.036;15.466;2023-06-14T00:04:33;5.80;;;3.05;;
68097;SDS011;54886;47.036;15.466;2023-06-14T00:06:59;4.65;;;2.80;;
68097;SDS011;54886;47.036;15.466;2023-06-14T00:09:25;7.47;;;3.20;;
68097;SDS011;54886;47.036;15.466;2023-06-14T00:11:51;6.03;;;3.22;;
68097;SDS011;54886;47.036;15.466;2023-06-14T00:14:16;5.68;;;3.33;;
68097;SDS011;54886;47.036;15.466;2023-06-14T00:16:42;4.78;;;3.08;;
68097;SDS011;54886;47.036;15.466;2023-06-14T00:19:08;6.93;;;3.22;;
68097;SDS011;54886;47.036;15.466;2023-06-14T00:21:35;5.40;;;3.38;;
68097;SDS011;54886;47.036;15.466;2023-06-14T00:24:01;6.35;;;3.33;;
68097;SDS011;54886;47.036;15.466;2023-06-14T00:26:27;4.60;;;2.95;;
68097;SDS011;54886;47.036;15.466;2023-06-14T00:28:53;6.68;;;3.25;;
68097;SDS011;54886;47.036;15.466;2023-06-14T00:31:19;7.97;;;3.20;;
68097;SDS011;54886;47.036;15.466;2023-06-14T00:33:44;8.57;;;2.90;;
68097;SDS011;54886;47.036;15.466;2023-06-14T00:36:10;5.72;;;3.08;;
68097;SDS011;54886;47.036;15.466;2023-06-14T00:38:36;5.50;;;3.05;;
68097;SDS011;54886;47.036;15.466;2023-06-14T00:41:01;7.55;;;3.00;;
68097;SDS011;54886;47.036;15.466;2023-06-14T00:43:26;6.18;;;3.17;;
68097;SDS011;54886;47.036;15.466;2023-06-14T00:45:52;7.70;;;3.40;;
68097;SDS011;54886;47.036;15.466;2023-06-14T00:48:17;6.32;;;3.03;;
68097;SDS011;54886;47.036;15.466;2023-06-14T00:50:44;5.05;;;3.20;;
68097;SDS011;54886;47.036;15.466;2023-06-14T00:53:13;5.63;;;3.30;;
68097;SDS011;54886;47.036;15.466;2023-06-14T00:55:42;4.93;;;3.17;;
68097;SDS011;54886;47.036;15.466;2023-06-14T00:58:08;6.28;;;2.92;;
68097;SDS011;54886;47.036;15.466;2023-06-14T01:00:34;5.05;;;2.90;;
68097;SDS011;54886;47.036;15.466;2023-06-14T01:03:00;7.50;;;3.20;;
68097;SDS011;54886;47.036;15.466;2023-06-14T01:05:26;5.38;;;3.10;;
68097;SDS011;54886;47.036;15.466;2023-06-14T01:11:07;6.93;;;3.35;;
68097;SDS011;54886;47.036;15.466;2023-06-14T01:16:08;5.05;;;3.20;;
68097;SDS011;54886;47.036;15.466;2023-06-14T01:18:34;5.07;;;3.20;;
68097;SDS011;54886;47.036;15.466;2023-06-14T01:21:00;5.63;;;3.17;;
68097;SDS011;54886;47.036;15.466;2023-06-14T01:23:30;6.43;;;3.15;;
68097;SDS011;54886;47.036;15.466;2023-06-14T01:26:00;6.85;;;3.58;;
68097;SDS011;54886;47.036;15.466;2023-06-14T01:28:28;6.75;;;3.42;;
68097;SDS011;54886;47.036;15.466;2023-06-14T01:30:57;6.20;;;3.53;;
68097;SDS011;54886;47.036;15.466;2023-06-14T01:33:26;4.50;;;3.10;;
68097;SDS011;54886;47.036;15.466;2023-06-14T01:38:20;6.32;;;3.20;;
68097;SDS011;54886;47.036;15.466;2023-06-14T01:40:48;5.18;;;3.00;;
68097;SDS011;54886;47.036;15.466;2023-06-14T01:43:16;5.03;;;3.08;;
68097;SDS011;54886;47.036;15.466;2023-06-14T01:45:42;5.05;;;3.13;;
68097;SDS011;54886;47.036;15.466;2023-06-14T01:48:10;4.95;;;2.92;;
68097;SDS011;54886;47.036;15.466;2023-06-14T01:50:37;6.82;;;3.22;;
68097;SDS011;54886;47.036;15.466;2023-06-14T01:53:02;10.23;;;3.28;;
68097;SDS011;54886;47.036;15.466;2023-06-14T01:55:27;5.97;;;3.38;;
68097;SDS011;54886;47.036;15.466;2023-06-14T01:57:53;7.05;;;3.38;;
68097;SDS011;54886;47.036;15.466;2023-06-14T02:00:19;6.72;;;3.33;;
68097;SDS011;54886;47.036;15.466;2023-06-14T02:02:46;7.43;;;3.38;;
68097;SDS011;54886;47.036;15.466;2023-06-14T02:05:12;5.75;;;3.20;;
68097;SDS011;54886;47.036;15.466;2023-06-14T02:07:37;5.95;;;3.30;;
68097;SDS011;54886;47.036;15.466;2023-06-14T02:10:03;5.18;;;3.00;;
68097;SDS011;54886;47.036;15.466;2023-06-14T02:12:30;4.93;;;3.27;;
68097;SDS011;54886;47.036;15.466;2023-06-14T02:14:55;5.80;;;2.90;;
68097;SDS011;54886;47.036;15.466;2023-06-14T02:17:21;5.15;;;3.20;;
68097;SDS011;54886;47.036;15.466;2023-06-14T02:19:47;6.43;;;3.10;;
68097;SDS011;54886;47.036;15.466;2023-06-14T02:22:13;7.55;;;3.13;;
68097;SDS011;54886;47.036;15.466;2023-06-14T02:24:40;4.95;;;3.10;;
68097;SDS011;54886;47.036;15.466;2023-06-14T02:27:05;6.03;;;3.30;;
68097;SDS011;54886;47.036;15.466;2023-06-14T02:29:31;6.25;;;3.20;;
68097;SDS011;54886;47.036;15.466;2023-06-14T02:31:57;7.78;;;3.28;;
68097;SDS011;54886;47.036;15.466;2023-06-14T02:34:22;5.20;;;3.00;;
68097;SDS011;54886;47.036;15.466;2023-06-14T02:36:48;5.80;;;2.80;;
68097;SDS011;54886;47.036;15.466;2023-06-14T02:39:13;4.35;;;2.80;;
68097;SDS011;54886;47.036;15.466;2023-06-14T02:41:39;5.07;;;3.00;;
68097;SDS011;54886;47.036;15.466;2023-06-14T02:44:05;9.57;;;3.88;;
68097;SDS011;54886;47.036;15.466;2023-06-14T02:46:31;6.35;;;3.20;;
68097;SDS011;54886;47.036;15.466;2023-06-14T02:48:56;6.85;;;3.15;;
68097;SDS011;54886;47.036;15.466;2023-06-14T02:51:22;5.68;;;3.28;;
68097;SDS011;54886;47.036;15.466;2023-06-14T02:53:47;6.30;;;3.08;;
68097;SDS011;54886;47.036;15.466;2023-06-14T02:56:12;5.82;;;3.10;;
68097;SDS011;54886;47.036;15.466;2023-06-14T02:58:38;4.32;;;2.97;;
68097;SDS011;54886;47.036;15.466;2023-06-14T03:01:04;6.50;;;2.97;;
68097;SDS011;54886;47.036;15.466;2023-06-14T03:03:30;5.07;;;2.80;;
68097;SDS011;54886;47.036;15.466;2023-06-14T03:05:56;5.20;;;3.15;;
68097;SDS011;54886;47.036;15.466;2023-06-14T03:08:22;7.50;;;3.20;;
68097;SDS011;54886;47.036;15.466;2023-06-14T03:10:52;5.00;;;3.25;;
68097;SDS011;54886;47.036;15.466;2023-06-14T03:13:18;5.32;;;3.22;;
68097;SDS011;54886;47.036;15.466;2023-06-14T03:15:47;5.80;;;3.17;;
68097;SDS011;54886;47.036;15.466;2023-06-14T03:18:15;6.40;;;3.50;;
68097;SDS011;54886;47.036;15.466;2023-06-14T03:20:41;5.18;;;3.10;;
68097;SDS011;54886;47.036;15.466;2023-06-14T03:23:07;5.18;;;3.30;;
68097;SDS011;54886;47.036;15.466;2023-06-14T03:25:33;6.88;;;3.20;;
68097;SDS011;54886;47.036;15.466;2023-06-14T03:28:00;4.10;;;2.97;;
68097;SDS011;54886;47.036;15.466;2023-06-14T03:30:26;5.70;;;3.08;;
68097;SDS011;54886;47.036;15.466;2023-06-14T03:32:52;4.97;;;3.42;;
68097;SDS011;54886;47.036;15.466;2023-06-14T03:35:18;7.57;;;3.05;;
68097;SDS011;54886;47.036;15.466;2023-06-14T03:37:45;5.78;;;3.22;;
68097;SDS011;54886;47.036;15.466;2023-06-14T03:42:37;5.65;;;3.00;;
68097;SDS011;54886;47.036;15.466;2023-06-14T03:45:02;7.35;;;3.13;;
68097;SDS011;54886;47.036;15.466;2023-06-14T03:47:28;5.05;;;2.90;;
68097;SDS011;54886;47.036;15.466;2023-06-14T03:49:54;5.00;;;3.15;;
68097;SDS011;54886;47.036;15.466;2023-06-14T03:52:20;6.60;;;3.25;;
68097;SDS011;54886;47.036;15.466;2023-06-14T03:54:47;7.22;;;3.10;;
68097;SDS011;54886;47.036;15.466;2023-06-14T03:57:12;5.53;;;3.10;;
68097;SDS011;54886;47.036;15.466;2023-06-14T03:59:38;6.13;;;3.13;;
68097;SDS011;54886;47.036;15.466;2023-06-14T04:02:03;6.13;;;3.17;;
68097;SDS011;54886;47.036;15.466;2023-06-14T04:04:29;6.10;;;3.17;;
68097;SDS011;54886;47.036;15.466;2023-06-14T04:06:55;5.90;;;3.10;;
68097;SDS011;54886;47.036;15.466;2023-06-14T04:09:25;5.43;;;3.05;;
68097;SDS011;54886;47.036;15.466;2023-06-14T04:11:54;4.72;;;3.08;;
68097;SDS011;54886;47.036;15.466;2023-06-14T04:14:20;5.30;;;2.90;;
68097;SDS011;54886;47.036;15.466;2023-06-14T04:16:46;5.05;;;3.05;;
68097;SDS011;54886;47.036;15.466;2023-06-14T04:19:12;6.68;;;3.35;;
68097;SDS011;54886;47.036;15.466;2023-06-14T04:21:37;5.28;;;3.20;;
68097;SDS011;54886;47.036;15.466;2023-06-14T04:24:03;4.82;;;3.03;;
68097;SDS011;54886;47.036;15.466;2023-06-14T04:26:29;4.88;;;3.40;;
68097;SDS011;54886;47.036;15.466;2023-06-14T04:28:55;5.78;;;2.90;;
68097;SDS011;54886;47.036;15.466;2023-06-14T04:31:22;5.45;;;3.10;;
68097;SDS011;54886;47.036;15.466;2023-06-14T04:33:50;6.18;;;2.97;;
68097;SDS011;54886;47.036;15.466;2023-06-14T04:36:18;9.07;;;3.38;;
68097;SDS011;54886;47.036;15.466;2023-06-14T04:38:43;5.68;;;3.22;;
68097;SDS011;54886;47.036;15.466;2023-06-14T04:41:11;5.88;;;3.35;;
68097;SDS011;54886;47.036;15.466;2023-06-14T04:43:36;5.40;;;3.10;;
68097;SDS011;54886;47.036;15.466;2023-06-14T04:46:06;8.02;;;3.28;;
68097;SDS011;54886;47.036;15.466;2023-06-14T04:48:38;5.25;;;3.10;;
68097;SDS011;54886;47.036;15.466;2023-06-14T04:51:05;7.55;;;3.25;;
68097;SDS011;54886;47.036;15.466;2023-06-14T04:53:32;5.10;;;3.30;;
68097;SDS011;54886;47.036;15.466;2023-06-14T04:55:57;8.10;;;3.40;;
68097;SDS011;54886;47.036;15.466;2023-06-14T04:58:22;7.38;;;3.10;;
68097;SDS011;54886;47.036;15.466;2023-06-14T05:00:48;7.05;;;3.17;;
68097;SDS011;54886;47.036;15.466;2023-06-14T05:03:13;7.25;;;3.17;;
68097;SDS011;54886;47.036;15.466;2023-06-14T05:05:42;7.63;;;3.15;;
68097;SDS011;54886;47.036;15.466;2023-06-14T05:08:07;8.50;;;3.28;;
68097;SDS011;54886;47.036;15.466;2023-06-14T05:10:34;5.15;;;3.30;;
68097;SDS011;54886;47.036;15.466;2023-06-14T05:13:01;7.18;;;3.88;;
68097;SDS011;54886;47.036;15.466;2023-06-14T05:15:26;7.75;;;3.60;;
68097;SDS011;54886;47.036;15.466;2023-06-14T05:17:53;7.55;;;3.35;;
68097;SDS011;54886;47.036;15.466;2023-06-14T05:20:21;8.05;;;3.30;;
68097;SDS011;54886;47.036;15.466;2023-06-14T05:22:48;5.72;;;3.40;;
68097;SDS011;54886;47.036;15.466;2023-06-14T05:25:16;5.00;;;3.00;;
68097;SDS011;54886;47.036;15.466;2023-06-14T05:27:42;8.90;;;3.55;;
68097;SDS011;54886;47.036;15.466;2023-06-14T05:30:07;5.50;;;3.40;;
68097;SDS011;54886;47.036;15.466;2023-06-14T05:32:33;6.55;;;3.45;;
68097;SDS011;54886;47.036;15.466;2023-06-14T05:34:59;7.20;;;3.67;;
68097;SDS011;54886;47.036;15.466;2023-06-14T05:37:24;11.65;;;3.55;;
68097;SDS011;54886;47.036;15.466;2023-06-14T05:39:50;7.07;;;3.38;;
68097;SDS011;54886;47.036;15.466;2023-06-14T05:42:15;5.68;;;3.10;;
68097;SDS011;54886;47.036;15.466;2023-06-14T05:44:40;7.78;;;3.45;;
68097;SDS011;54886;47.036;15.466;2023-06-14T05:47:06;7.05;;;3.80;;
68097;SDS011;54886;47.036;15.466;2023-06-14T05:49:31;7.45;;;3.92;;
68097;SDS011;54886;47.036;15.466;2023-06-14T05:51:57;8.32;;;3.50;;
68097;SDS011;54886;47.036;15.466;2023-06-14T05:54:22;9.07;;;3.60;;
68097;SDS011;54886;47.036;15.466;2023-06-14T05:56:47;8.60;;;3.80;;
68097;SDS011;54886;47.036;15.466;2023-06-14T05:59:13;9.20;;;3.80;;
68097;SDS011;54886;47.036;15.466;2023-06-14T06:01:38;8.13;;;3.75;;
68097;SDS011;54886;47.036;15.466;2023-06-14T06:04:05;10.45;;;3.85;;
68097;SDS011;54886;47.036;15.466;2023-06-14T06:06:31;6.35;;;3.63;;
68097;SDS011;54886;47.036;15.466;2023-06-14T06:08:57;8.45;;;3.63;;
68097;SDS011;54886;47.036;15.466;2023-06-14T06:11:23;6.95;;;3.53;;
68097;SDS011;54886;47.036;15.466;2023-06-14T06:13:48;7.55;;;4.05;;
68097;SDS011;54886;47.036;15.466;2023-06-14T06:16:14;8.00;;;3.72;;
68097;SDS011;54886;47.036;15.466;2023-06-14T06:18:40;6.85;;;3.45;;
68097;SDS011;54886;47.036;15.466;2023-06-14T06:21:05;5.90;;;3.60;;
68097;SDS011;54886;47.036;15.466;2023-06-14T06:23:31;8.40;;;3.45;;
68097;SDS011;54886;47.036;15.466;2023-06-14T06:25:57;11.10;;;3.95;;
68097;SDS011;54886;47.036;15.466;2023-06-14T06:28:22;14.52;;;4.45;;
68097;SDS011;54886;47.036;15.466;2023-06-14T06:30:48;16.38;;;4.80;;
68097;SDS011;54886;47.036;15.466;2023-06-14T06:33:13;13.13;;;4.60;;
68097;SDS011;54886;47.036;15.466;2023-06-14T06:35:39;14.77;;;4.05;;
68097;SDS011;54886;47.036;15.466;2023-06-14T06:38:05;14.45;;;4.30;;
68097;SDS011;54886;47.036;15.466;2023-06-14T06:40:30;14.38;;;4.35;;
68097;SDS011;54886;47.036;15.466;2023-06-14T06:42:56;10.70;;;4.65;;
68097;SDS011;54886;47.036;15.466;2023-06-14T06:45:21;8.43;;;4.03;;
68097;SDS011;54886;47.036;15.466;2023-06-14T06:47:48;7.20;;;3.53;;
68097;SDS011;54886;47.036;15.466;2023-06-14T06:50:14;8.90;;;4.18;;
68097;SDS011;54886;47.036;15.466;2023-06-14T06:52:39;10.65;;;3.60;;
68097;SDS011;54886;47.036;15.466;2023-06-14T06:55:05;9.02;;;4.00;;
68097;SDS011;54886;47.036;15.466;2023-06-14T06:57:30;11.32;;;3.70;;
68097;SDS011;54886;47.036;15.466;2023-06-14T06:59:57;8.02;;;3.92;;
68097;SDS011;54886;47.036;15.466;2023-06-14T07:02:22;5.80;;;3.45;;
68097;SDS011;54886;47.036;15.466;2023-06-14T07:04:47;8.25;;;3.80;;
68097;SDS011;54886;47.036;15.466;2023-06-14T07:07:13;8.65;;;4.03;;
68097;SDS011;54886;47.036;15.466;2023-06-14T07:09:38;5.82;;;3.35;;
68097;SDS011;54886;47.036;15.466;2023-06-14T07:12:04;7.13;;;3.67;;
68097;SDS011;54886;47.036;15.466;2023-06-14T07:14:29;8.45;;;3.75;;
68097;SDS011;54886;47.036;15.466;2023-06-14T07:16:55;8.52;;;4.35;;
68097;SDS011;54886;47.036;15.466;2023-06-14T07:19:21;6.55;;;3.65;;
68097;SDS011;54886;47.036;15.466;2023-06-14T07:21:46;5.90;;;3.63;;
68097;SDS011;54886;47.036;15.466;2023-06-14T07:24:12;10.10;;;4.10;;
68097;SDS011;54886;47.036;15.466;2023-06-14T07:26:37;7.30;;;3.80;;
68097;SDS011;54886;47.036;15.466;2023-06-14T07:29:02;5.45;;;3.45;;
68097;SDS011;54886;47.036;15.466;2023-06-14T07:31:28;7.72;;;3.70;;
68097;SDS011;54886;47.036;15.466;2023-06-14T07:33:53;7.32;;;3.95;;
68097;SDS011;54886;47.036;15.466;2023-06-14T07:36:19;9.30;;;4.00;;
68097;SDS011;54886;47.036;15.466;2023-06-14T07:38:45;7.15;;;3.67;;
68097;SDS011;54886;47.036;15.466;2023-06-14T07:41:11;9.02;;;3.80;;
68097;SDS011;54886;47.036;15.466;2023-06-14T07:43:36;8.18;;;4.00;;
68097;SDS011;54886;47.036;15.466;2023-06-14T07:46:01;7.03;;;4.10;;
68097;SDS011;54886;47.036;15.466;2023-06-14T07:48:27;9.60;;;4.30;;
68097;SDS011;54886;47.036;15.466;2023-06-14T07:50:53;10.80;;;4.57;;
68097;SDS011;54886;47.036;15.466;2023-06-14T07:53:18;10.75;;;4.10;;
68097;SDS011;54886;47.036;15.466;2023-06-14T07:55:44;8.10;;;3.97;;
68097;SDS011;54886;47.036;15.466;2023-06-14T07:58:09;8.13;;;4.50;;
68097;SDS011;54886;47.036;15.466;2023-06-14T08:00:35;6.88;;;4.10;;
68097;SDS011;54886;47.036;15.466;2023-06-14T08:03:01;7.80;;;4.20;;
68097;SDS011;54886;47.036;15.466;2023-06-14T08:05:27;9.25;;;3.97;;
68097;SDS011;54886;47.036;15.466;2023-06-14T08:07:53;7.38;;;4.15;;
68097;SDS011;54886;47.036;15.466;2023-06-14T08:10:19;7.47;;;3.88;;
68097;SDS011;54886;47.036;15.466;2023-06-14T08:12:45;9.00;;;4.72;;
68097;SDS011;54886;47.036;15.466;2023-06-14T08:15:10;7.40;;;4.10;;
68097;SDS011;54886;47.036;15.466;2023-06-14T08:17:36;7.97;;;4.40;;
68097;SDS011;54886;47.036;15.466;2023-06-14T08:20:01;6.72;;;4.32;;
68097;SDS011;54886;47.036;15.466;2023-06-14T08:22:29;7.40;;;4.13;;
68097;SDS011;54886;47.036;15.466;2023-06-14T08:24:57;8.38;;;4.03;;
68097;SDS011;54886;47.036;15.466;2023-06-14T08:27:23;13.32;;;4.38;;
68097;SDS011;54886;47.036;15.466;2023-06-14T08:29:48;6.95;;;3.80;;
68097;SDS011;54886;47.036;15.466;2023-06-14T08:32:13;9.27;;;3.75;;
68097;SDS011;54886;47.036;15.466;2023-06-14T08:34:39;9.95;;;4.30;;
68097;SDS011;54886;47.036;15.466;2023-06-14T08:37:04;6.07;;;3.53;;
68097;SDS011;54886;47.036;15.466;2023-06-14T08:39:31;8.52;;;3.88;;
68097;SDS011;54886;47.036;15.466;2023-06-14T08:41:57;7.80;;;3.92;;
68097;SDS011;54886;47.036;15.466;2023-06-14T08:44:22;5.80;;;3.50;;
68097;SDS011;54886;47.036;15.466;2023-06-14T08:46:48;5.78;;;3.80;;
68097;SDS011;54886;47.036;15.466;2023-06-14T08:49:16;8.27;;;3.78;;
68097;SDS011;54886;47.036;15.466;2023-06-14T08:51:42;8.57;;;3.97;;
68097;SDS011;54886;47.036;15.466;2023-06-14T08:54:08;5.80;;;3.75;;
68097;SDS011;54886;47.036;15.466;2023-06-14T08:56:37;6.35;;;3.65;;
68097;SDS011;54886;47.036;15.466;2023-06-14T08:59:03;9.40;;;3.83;;
68097;SDS011;54886;47.036;15.466;2023-06-14T09:01:33;9.30;;;3.92;;
68097;SDS011;54886;47.036;15.466;2023-06-14T09:03:59;6.85;;;3.67;;
68097;SDS011;54886;47.036;15.466;2023-06-14T09:06:25;9.15;;;3.80;;
68097;SDS011;54886;47.036;15.466;2023-06-14T09:08:53;7.78;;;4.00;;
68097;SDS011;54886;47.036;15.466;2023-06-14T09:11:20;6.53;;;3.80;;
68097;SDS011;54886;47.036;15.466;2023-06-14T09:13:46;7.40;;;4.18;;
68097;SDS011;54886;47.036;15.466;2023-06-14T09:16:11;7.47;;;4.05;;
68097;SDS011;54886;47.036;15.466;2023-06-14T09:18:38;9.20;;;4.22;;
68097;SDS011;54886;47.036;15.466;2023-06-14T09:21:07;7.20;;;4.57;;
68097;SDS011;54886;47.036;15.466;2023-06-14T09:23:36;12.00;;;4.78;;
68097;SDS011;54886;47.036;15.466;2023-06-14T09:26:06;6.47;;;4.38;;
68097;SDS011;54886;47.036;15.466;2023-06-14T09:28:32;10.35;;;4.38;;
68097;SDS011;54886;47.036;15.466;2023-06-14T09:30:57;8.00;;;4.60;;
68097;SDS011;54886;47.036;15.466;2023-06-14T09:33:22;8.38;;;4.32;;
68097;SDS011;54886;47.036;15.466;2023-06-14T09:35:51;7.32;;;4.45;;
68097;SDS011;54886;47.036;15.466;2023-06-14T09:38:17;8.48;;;4.25;;
68097;SDS011;54886;47.036;15.466;2023-06-14T09:40:43;7.25;;;4.35;;
68097;SDS011;54886;47.036;15.466;2023-06-14T09:43:08;7.70;;;4.40;;
68097;SDS011;54886;47.036;15.466;2023-06-14T09:45:34;7.00;;;4.07;;
68097;SDS011;54886;47.036;15.466;2023-06-14T09:48:01;7.93;;;4.50;;
68097;SDS011;54886;47.036;15.466;2023-06-14T09:50:27;6.57;;;3.92;;
68097;SDS011;54886;47.036;15.466;2023-06-14T09:52:52;7.82;;;4.13;;
68097;SDS011;54886;47.036;15.466;2023-06-14T09:55:22;9.30;;;4.60;;
68097;SDS011;54886;47.036;15.466;2023-06-14T09:57:49;7.55;;;4.35;;
68097;SDS011;54886;47.036;15.466;2023-06-14T10:00:16;7.28;;;4.35;;
68097;SDS011;54886;47.036;15.466;2023-06-14T10:02:45;7.28;;;4.40;;
68097;SDS011;54886;47.036;15.466;2023-06-14T10:05:17;7.28;;;4.43;;
68097;SDS011;54886;47.036;15.466;2023-06-14T10:07:52;7.65;;;4.13;;
68097;SDS011;54886;47.036;15.466;2023-06-14T10:10:20;9.02;;;4.32;;
68097;SDS011;54886;47.036;15.466;2023-06-14T10:12:47;7.57;;;3.60;;
68097;SDS011;54886;47.036;15.466;2023-06-14T10:15:16;6.65;;;4.03;;
68097;SDS011;54886;47.036;15.466;2023-06-14T10:17:49;10.20;;;4.57;;
68097;SDS011;54886;47.036;15.466;2023-06-14T10:20:23;7.80;;;4.20;;
68097;SDS011;54886;47.036;15.466;2023-06-14T10:22:59;7.55;;;4.57;;
68097;SDS011;54886;47.036;15.466;2023-06-14T10:25:29;7.53;;;4.40;;
68097;SDS011;54886;47.036;15.466;2023-06-14T10:28:02;7.00;;;4.33;;
68097;SDS011;54886;47.036;15.466;2023-06-14T10:30:37;6.40;;;4.10;;
68097;SDS011;54886;47.036;15.466;2023-06-14T10:33:03;8.13;;;4.10;;
68097;SDS011;54886;47.036;15.466;2023-06-14T10:35:32;6.63;;;3.85;;
68097;SDS011;54886;47.036;15.466;2023-06-14T10:38:11;9.13;;;3.90;;
68097;SDS011;54886;47.036;15.466;2023-06-14T10:40:37;7.70;;;3.70;;
68097;SDS011;54886;47.036;15.466;2023-06-14T10:43:22;6.38;;;3.30;;
68097;SDS011;54886;47.036;15.466;2023-06-14T10:48:40;6.35;;;3.20;;
68097;SDS011;54886;47.036;15.466;2023-06-14T10:51:13;7.47;;;3.38;;
68097;SDS011;54886;47.036;15.466;2023-06-14T10:53:45;5.32;;;3.40;;
68097;SDS011;54886;47.036;15.466;2023-06-14T10:56:24;6.35;;;3.50;;
68097;SDS011;54886;47.036;15.466;2023-06-14T10:58:53;5.65;;;3.25;;
68097;SDS011;54886;47.036;15.466;2023-06-14T11:01:19;5.15;;;3.13;;
68097;SDS011;54886;47.036;15.466;2023-06-14T11:03:56;6.07;;;3.45;;
68097;SDS011;54886;47.036;15.466;2023-06-14T11:06:33;6.93;;;3.60;;
68097;SDS011;54886;47.036;15.466;2023-06-14T11:11:45;6.55;;;3.40;;
68097;SDS011;54886;47.036;15.466;2023-06-14T11:14:11;5.82;;;3.00;;
68097;SDS011;54886;47.036;15.466;2023-06-14T11:16:36;5.95;;;3.22;;
68097;SDS011;54886;47.036;15.466;2023-06-14T11:19:02;7.03;;;3.35;;
68097;SDS011;54886;47.036;15.466;2023-06-14T11:21:33;5.90;;;3.10;;
68097;SDS011;54886;47.036;15.466;2023-06-14T11:23:59;7.18;;;3.35;;
68097;SDS011;54886;47.036;15.466;2023-06-14T11:26:25;6.30;;;2.97;;
68097;SDS011;54886;47.036;15.466;2023-06-14T11:28:54;6.50;;;3.40;;
68097;SDS011;54886;47.036;15.466;2023-06-14T11:31:21;5.10;;;3.17;;
68097;SDS011;54886;47.036;15.466;2023-06-14T11:33:49;5.82;;;3.25;;
68097;SDS011;54886;47.036;15.466;2023-06-14T11:36:15;7.80;;;3.33;;
68097;SDS011;54886;47.036;15.466;2023-06-14T11:38:41;4.80;;;2.90;;
68097;SDS011;54886;47.036;15.466;2023-06-14T11:41:06;6.10;;;2.90;;
68097;SDS011;54886;47.036;15.466;2023-06-14T11:43:31;4.35;;;2.90;;
68097;SDS011;54886;47.036;15.466;2023-06-14T11:45:58;5.30;;;2.92;;
68097;SDS011;54886;47.036;15.466;2023-06-14T11:48:35;6.47;;;3.20;;
68097;SDS011;54886;47.036;15.466;2023-06-14T11:51:01;6.63;;;2.88;;
68097;SDS011;54886;47.036;15.466;2023-06-14T11:53:26;5.20;;;2.90;;
68097;SDS011;54886;47.036;15.466;2023-06-14T11:55:52;8.45;;;3.05;;
68097;SDS011;54886;47.036;15.466;2023-06-14T11:58:18;5.97;;;3.47;;
68097;SDS011;54886;47.036;15.466;2023-06-14T12:00:43;5.30;;;3.20;;
68097;SDS011;54886;47.036;15.466;2023-06-14T12:03:09;6.60;;;3.50;;
68097;SDS011;54886;47.036;15.466;2023-06-14T12:05:34;5.78;;;3.20;;
68097;SDS011;54886;47.036;15.466;2023-06-14T12:08:01;7.32;;;3.45;;
68097;SDS011;54886;47.036;15.466;2023-06-14T12:10:27;6.78;;;3.35;;
68097;SDS011;54886;47.036;15.466;2023-06-14T12:12:56;7.57;;;3.22;;
68097;SDS011;54886;47.036;15.466;2023-06-14T12:15:23;6.25;;;3.50;;
68097;SDS011;54886;47.036;15.466;2023-06-14T12:17:49;4.70;;;3.08;;
68097;SDS011;54886;47.036;15.466;2023-06-14T12:20:15;5.05;;;3.13;;
68097;SDS011;54886;47.036;15.466;2023-06-14T12:22:56;7.40;;;3.25;;
68097;SDS011;54886;47.036;15.466;2023-06-14T12:25:27;7.93;;;3.60;;
68097;SDS011;54886;47.036;15.466;2023-06-14T12:27:56;5.80;;;3.22;;
68097;SDS011;54886;47.036;15.466;2023-06-14T12:30:22;5.82;;;3.30;;
68097;SDS011;54886;47.036;15.466;2023-06-14T12:32:49;8.85;;;3.30;;
68097;SDS011;54886;47.036;15.466;2023-06-14T12:35:16;7.32;;;3.17;;
68097;SDS011;54886;47.036;15.466;2023-06-14T12:37:43;7.28;;;3.53;;
68097;SDS011;54886;47.036;15.466;2023-06-14T12:40:08;5.88;;;3.25;;
68097;SDS011;54886;47.036;15.466;2023-06-14T12:42:36;5.28;;;3.00;;
68097;SDS011;54886;47.036;15.466;2023-06-14T12:45:02;4.72;;;3.08;;
68097;SDS011;54886;47.036;15.466;2023-06-14T12:47:27;5.18;;;3.00;;
68097;SDS011;54886;47.036;15.466;2023-06-14T12:49:53;5.32;;;2.90;;
68097;SDS011;54886;47.036;15.466;2023-06-14T12:52:18;5.15;;;3.13;;
68097;SDS011;54886;47.036;15.466;2023-06-14T12:54:43;8.35;;;3.35;;
68097;SDS011;54886;47.036;15.466;2023-06-14T12:57:09;4.82;;;3.05;;
68097;SDS011;54886;47.036;15.466;2023-06-14T12:59:35;4.95;;;3.00;;
68097;SDS011;54886;47.036;15.466;2023-06-14T13:02:10;5.85;;;3.20;;
68097;SDS011;54886;47.036;15.466;2023-06-14T13:04:36;5.95;;;3.08;;
68097;SDS011;54886;47.036;15.466;2023-06-14T13:07:01;6.57;;;3.40;;
68097;SDS011;54886;47.036;15.466;2023-06-14T13:09:26;4.55;;;3.08;;
68097;SDS011;54886;47.036;15.466;2023-06-14T13:11:52;5.25;;;3.20;;
68097;SDS011;54886;47.036;15.466;2023-06-14T13:14:17;5.78;;;3.58;;
68097;SDS011;54886;47.036;15.466;2023-06-14T13:16:43;6.07;;;3.13;;
68097;SDS011;54886;47.036;15.466;2023-06-14T13:19:09;7.05;;;3.13;;
68097;SDS011;54886;47.036;15.466;2023-06-14T13:21:34;5.35;;;3.30;;
68097;SDS011;54886;47.036;15.466;2023-06-14T13:23:59;6.47;;;3.10;;
68097;SDS011;54886;47.036;15.466;2023-06-14T13:26:25;7.25;;;3.15;;
68097;SDS011;54886;47.036;15.466;2023-06-14T13:28:51;5.15;;;3.00;;
68097;SDS011;54886;47.036;15.466;2023-06-14T13:31:17;6.70;;;3.30;;
68097;SDS011;54886;47.036;15.466;2023-06-14T13:33:42;5.80;;;3.20;;
68097;SDS011;54886;47.036;15.466;2023-06-14T13:36:08;4.47;;;3.03;;
68097;SDS011;54886;47.036;15.466;2023-06-14T13:38:33;5.53;;;3.28;;
68097;SDS011;54886;47.036;15.466;2023-06-14T13:40:58;5.22;;;2.95;;
68097;SDS011;54886;47.036;15.466;2023-06-14T13:43:24;6.07;;;3.40;;
68097;SDS011;54886;47.036;15.466;2023-06-14T13:45:49;7.63;;;3.30;;
68097;SDS011;54886;47.036;15.466;2023-06-14T13:48:15;6.80;;;3.40;;
68097;SDS011;54886;47.036;15.466;2023-06-14T13:50:40;7.10;;;3.38;;
68097;SDS011;54886;47.036;15.466;2023-06-14T13:53:05;5.95;;;3.42;;
68097;SDS011;54886;47.036;15.466;2023-06-14T13:55:31;5.78;;;3.25;;
68097;SDS011;54886;47.036;15.466;2023-06-14T13:57:56;5.15;;;3.10;;
68097;SDS011;54886;47.036;15.466;2023-06-14T14:00:22;7.07;;;3.40;;
68097;SDS011;54886;47.036;15.466;2023-06-14T14:02:47;9.98;;;3.67;;
68097;SDS011;54886;47.036;15.466;2023-06-14T14:07:41;4.93;;;3.13;;
68097;SDS011;54886;47.036;15.466;2023-06-14T14:10:07;5.10;;;3.10;;
68097;SDS011;54886;47.036;15.466;2023-06-14T14:12:33;5.70;;;3.40;;
68097;SDS011;54886;47.036;15.466;2023-06-14T14:14:59;7.72;;;3.30;;
68097;SDS011;54886;47.036;15.466;2023-06-14T14:17:24;5.25;;;3.17;;
68097;SDS011;54886;47.036;15.466;2023-06-14T14:19:50;4.70;;;3.08;;
68097;SDS011;54886;47.036;15.466;2023-06-14T14:22:15;4.70;;;3.25;;
68097;SDS011;54886;47.036;15.466;2023-06-14T14:24:40;6.88;;;3.45;;
68097;SDS011;54886;47.036;15.466;2023-06-14T14:27:06;5.55;;;3.33;;
68097;SDS011;54886;47.036;15.466;2023-06-14T14:29:32;5.40;;;3.17;;
68097;SDS011;54886;47.036;15.466;2023-06-14T14:31:58;7.38;;;3.40;;
68097;SDS011;54886;47.036;15.466;2023-06-14T14:34:26;6.00;;;3.15;;
68097;SDS011;54886;47.036;15.466;2023-06-14T14:36:52;5.05;;;3.42;;
68097;SDS011;54886;47.036;15.466;2023-06-14T14:39:17;5.55;;;3.25;;
68097;SDS011;54886;47.036;15.466;2023-06-14T14:41:42;6.47;;;3.38;;
68097;SDS011;54886;47.036;15.466;2023-06-14T14:44:08;5.32;;;3.03;;
68097;SDS011;54886;47.036;15.466;2023-06-14T14:46:33;5.45;;;3.13;;
68097;SDS011;54886;47.036;15.466;2023-06-14T14:48:59;5.80;;;3.28;;